createdAt,value
2019-05-19T00:02:41.942Z,13.10
2019-05-19T00:05:58.512Z,13.16
2019-05-19T00:09:16.741Z,13.11
2019-05-19T00:12:33.863Z,13.08
2019-05-19T00:15:50.464Z,13.12
2019-05-19T00:19:07.389Z,13.03
2019-05-19T00:22:24.272Z,13.03
2019-05-19T00:25:40.789Z,13.02
2019-05-19T00:28:58.934Z,13.00
2019-05-19T00:32:06.439Z,12.99
2019-05-19T00:35:23.168Z,13.00
2019-05-19T00:38:41.794Z,12.99
2019-05-19T00:42:00.609Z,13.01
2019-05-19T00:45:08.487Z,12.93
2019-05-19T00:48:15.889Z,12.93
2019-05-19T00:51:23.306Z,12.97
2019-05-19T00:54:41.110Z,12.97
2019-05-19T00:57:46.878Z,12.89
2019-05-19T01:01:03.451Z,12.92
2019-05-19T01:04:20.295Z,12.91
2019-05-19T01:07:37.130Z,12.86
2019-05-19T01:10:43.487Z,12.89
2019-05-19T01:13:50.989Z,12.81
2019-05-19T01:16:58.372Z,12.83
2019-05-19T01:20:05.906Z,12.75
2019-05-19T01:23:22.745Z,12.73
2019-05-19T01:26:46.853Z,12.75
2019-05-19T01:30:03.618Z,12.74
2019-05-19T01:33:20.243Z,12.72
2019-05-19T01:36:36.906Z,12.75
2019-05-19T01:39:53.663Z,12.87
2019-05-19T01:43:10.487Z,12.75
2019-05-19T01:46:27.241Z,12.64
2019-05-19T01:49:43.836Z,12.66
2019-05-19T01:52:51.160Z,12.59
2019-05-19T01:56:10.962Z,12.60
2019-05-19T01:59:17.823Z,12.54
2019-05-19T02:02:25.297Z,12.50
2019-05-19T02:05:42.020Z,12.52
2019-05-19T02:08:47.715Z,12.46
2019-05-19T02:12:04.324Z,12.49
2019-05-19T02:15:21.195Z,12.49
2019-05-19T02:18:41.740Z,12.47
2019-05-19T02:21:58.420Z,12.49
2019-05-19T02:25:16.702Z,12.49
2019-05-19T02:28:24.408Z,12.45
2019-05-19T02:31:31.725Z,12.38
2019-05-19T02:34:39.282Z,12.39
2019-05-19T02:37:46.765Z,12.38
2019-05-19T02:40:56.346Z,12.31
2019-05-19T02:44:04.058Z,12.31
2019-05-19T02:47:12.936Z,12.32
2019-05-19T02:50:20.932Z,12.28
2019-05-19T02:53:38.519Z,12.31
2019-05-19T02:56:44.794Z,12.25
2019-05-19T02:59:52.882Z,12.27
2019-05-19T03:03:00.339Z,12.23
2019-05-19T03:06:08.213Z,12.25
2019-05-19T03:09:15.635Z,12.28
2019-05-19T03:12:32.398Z,12.27
2019-05-19T03:15:48.985Z,12.24
2019-05-19T03:19:15.757Z,12.20
2019-05-19T03:22:32.701Z,12.28
2019-05-19T03:25:43.850Z,12.20
2019-05-19T03:28:49.363Z,12.17
2019-05-19T03:32:13.421Z,12.12
2019-05-19T03:35:40.255Z,12.15
2019-05-19T03:39:04.666Z,12.13
2019-05-19T03:42:21.418Z,12.13
2019-05-19T03:45:38.135Z,12.21
2019-05-19T03:48:43.842Z,12.14
2019-05-19T03:52:00.527Z,12.14
2019-05-19T03:55:17.265Z,12.13
2019-05-19T03:58:34.062Z,12.14
2019-05-19T04:01:53.886Z,12.15
2019-05-19T04:05:01.395Z,12.11
2019-05-19T04:08:09.014Z,12.11
2019-05-19T04:11:16.303Z,12.19
2019-05-19T04:14:23.759Z,12.25
2019-05-19T04:17:43.679Z,12.22
2019-05-19T04:21:00.371Z,12.25
2019-05-19T04:24:07.673Z,12.22
2019-05-19T04:27:24.448Z,12.27
2019-05-19T04:30:41.320Z,12.28
2019-05-19T04:33:57.983Z,12.30
2019-05-19T04:37:14.584Z,12.30
2019-05-19T04:40:31.424Z,12.27
2019-05-19T04:43:48.082Z,12.28
2019-05-19T04:47:04.900Z,12.30
2019-05-19T04:50:21.618Z,12.34
2019-05-19T04:53:44.287Z,12.30
2019-05-19T04:57:01.085Z,12.38
2019-05-19T05:00:17.982Z,12.49
2019-05-19T05:03:34.705Z,12.52
2019-05-19T05:06:51.255Z,12.58
2019-05-19T05:10:08.246Z,12.59
2019-05-19T05:13:24.701Z,12.61
2019-05-19T05:16:41.446Z,12.63
2019-05-19T05:19:58.270Z,12.64
2019-05-19T05:23:14.978Z,12.61
2019-05-19T05:26:31.904Z,12.65
2019-05-19T05:29:48.452Z,12.68
2019-05-19T05:33:05.290Z,12.70
2019-05-19T05:36:22.066Z,12.68
2019-05-19T05:39:38.661Z,12.71
2019-05-19T05:42:46.055Z,12.66
2019-05-19T05:45:52.678Z,12.70
2019-05-19T05:49:00.012Z,12.70
2019-05-19T05:52:07.619Z,12.71
2019-05-19T05:55:24.241Z,12.79
2019-05-19T05:58:40.965Z,12.81
2019-05-19T06:01:46.567Z,12.77
2019-05-19T06:05:03.409Z,12.84
2019-05-19T06:08:20.179Z,12.86
2019-05-19T06:11:36.794Z,12.88
2019-05-19T06:14:59.514Z,12.91
2019-05-19T06:18:16.417Z,12.92
2019-05-19T06:21:33.013Z,12.96
2019-05-19T06:24:49.853Z,13.00
2019-05-19T06:28:06.443Z,13.02
2019-05-19T06:31:12.923Z,13.00
2019-05-19T06:34:20.256Z,13.03
2019-05-19T06:37:28.046Z,13.06
2019-05-19T06:40:35.007Z,13.08
2019-05-19T06:43:42.506Z,13.11
2019-05-19T06:46:49.890Z,13.15
2019-05-19T06:50:07.200Z,13.21
2019-05-19T06:53:14.927Z,13.17
2019-05-19T06:56:22.497Z,13.19
2019-05-19T06:59:39.144Z,13.26
2019-05-19T07:03:01.911Z,13.31
2019-05-19T07:06:09.195Z,13.28
2019-05-19T07:09:26.175Z,13.35
2019-05-19T07:12:33.841Z,13.34
2019-05-19T07:15:41.259Z,13.40
2019-05-19T07:18:48.583Z,13.43
2019-05-19T07:21:56.040Z,13.46
2019-05-19T07:25:03.542Z,13.51
2019-05-19T07:28:20.378Z,13.60
2019-05-19T07:31:37.028Z,13.58
2019-05-19T07:34:53.794Z,13.65
2019-05-19T07:38:13.595Z,13.70
2019-05-19T07:41:20.915Z,13.66
2019-05-19T07:44:45.479Z,13.75
2019-05-19T07:47:52.994Z,13.72
2019-05-19T07:51:00.435Z,13.75
2019-05-19T07:54:07.957Z,13.78
2019-05-19T07:57:13.862Z,13.82
2019-05-19T08:00:30.446Z,13.86
2019-05-19T08:03:36.604Z,13.85
2019-05-19T08:06:42.544Z,13.87
2019-05-19T08:09:50.076Z,13.92
2019-05-19T08:12:57.793Z,13.96
2019-05-19T08:16:14.413Z,14.07
2019-05-19T08:19:31.059Z,14.10
2019-05-19T08:22:55.410Z,14.18
2019-05-19T08:26:02.750Z,14.19
2019-05-19T08:29:10.235Z,14.30
2019-05-19T08:32:27.214Z,14.41
2019-05-19T08:35:33.919Z,14.42
2019-05-19T08:38:41.373Z,14.51
2019-05-19T08:42:02.395Z,14.66
2019-05-19T08:45:09.099Z,14.69
2019-05-19T08:48:15.711Z,14.79
2019-05-19T08:51:23.097Z,14.90
2019-05-19T08:54:30.573Z,15.03
2019-05-19T08:57:56.609Z,15.16
2019-05-19T09:01:04.230Z,15.18
2019-05-19T09:04:11.721Z,15.26
2019-05-19T09:07:19.110Z,15.33
2019-05-19T09:10:24.735Z,15.39
2019-05-19T09:13:30.511Z,15.46
2019-05-19T09:16:37.964Z,15.48
2019-05-19T09:19:54.798Z,15.55
2019-05-19T09:23:17.673Z,15.59
2019-05-19T09:26:24.077Z,15.54
2019-05-19T09:29:31.440Z,15.61
2019-05-19T09:32:38.867Z,15.63
2019-05-19T09:35:45.694Z,15.70
2019-05-19T09:38:53.107Z,15.78
2019-05-19T09:42:00.612Z,15.89
2019-05-19T09:45:08.175Z,15.96
2019-05-19T09:48:24.754Z,16.10
2019-05-19T09:51:44.939Z,16.29
2019-05-19T09:54:52.227Z,16.45
2019-05-19T09:57:59.652Z,16.60
2019-05-19T10:01:07.022Z,16.65
2019-05-19T10:04:14.322Z,16.68
2019-05-19T10:07:21.823Z,16.71
2019-05-19T10:11:21.536Z,16.73
2019-05-19T10:14:29.156Z,16.82
2019-05-19T10:17:49.690Z,17.08
2019-05-19T10:21:08.679Z,17.17
2019-05-19T10:24:28.588Z,17.30
2019-05-19T10:27:48.383Z,17.34
2019-05-19T10:31:06.470Z,17.41
2019-05-19T10:34:14.076Z,17.47
2019-05-19T10:37:30.767Z,17.57
2019-05-19T10:40:38.753Z,17.58
2019-05-19T10:43:47.858Z,17.70
2019-05-19T10:46:55.169Z,17.76
2019-05-19T10:50:02.672Z,17.84
2019-05-19T10:53:20.768Z,17.93
2019-05-19T10:56:27.703Z,17.96
2019-05-19T10:59:35.134Z,18.01
2019-05-19T11:02:53.897Z,18.06
2019-05-19T11:06:02.715Z,18.15
2019-05-19T11:09:10.255Z,18.19
2019-05-19T11:12:17.486Z,18.27
2019-05-19T11:15:24.922Z,18.29
2019-05-19T11:18:32.425Z,18.27
2019-05-19T11:21:39.933Z,18.40
2019-05-19T11:24:59.175Z,18.47
2019-05-19T11:28:15.967Z,18.57
2019-05-19T11:31:32.676Z,18.64
2019-05-19T11:34:49.353Z,18.67
2019-05-19T11:37:55.242Z,18.72
2019-05-19T11:41:11.677Z,18.79
2019-05-19T11:44:28.539Z,18.93
2019-05-19T11:47:45.309Z,18.97
2019-05-19T11:50:52.203Z,18.95
2019-05-19T11:53:59.490Z,18.98
2019-05-19T11:57:06.825Z,19.03
2019-05-19T12:00:24.240Z,19.15
2019-05-19T12:03:30.003Z,19.13
2019-05-19T12:07:04.528Z,19.26
2019-05-19T12:10:26.012Z,19.30
2019-05-19T12:13:42.780Z,19.36
2019-05-19T12:17:08.591Z,19.43
2019-05-19T12:20:25.200Z,19.46
2019-05-19T12:23:32.494Z,19.47
2019-05-19T12:26:56.770Z,19.59
2019-05-19T12:30:19.831Z,19.63
2019-05-19T12:33:27.216Z,19.62
2019-05-19T12:36:43.929Z,19.78
2019-05-19T12:39:50.211Z,19.80
2019-05-19T12:42:56.109Z,19.88
2019-05-19T12:46:03.595Z,19.92
2019-05-19T12:49:11.059Z,19.98
2019-05-19T12:52:27.883Z,20.08
2019-05-19T12:55:44.735Z,20.15
2019-05-19T12:59:04.398Z,20.21
2019-05-19T13:02:21.138Z,20.26
2019-05-19T13:05:37.977Z,20.32
2019-05-19T13:12:26.247Z,20.38
2019-05-19T13:15:33.741Z,20.34
2019-05-19T13:18:41.355Z,20.34
2019-05-19T13:22:01.948Z,20.36
2019-05-19T13:25:09.406Z,20.29
2019-05-19T13:28:16.880Z,20.27
2019-05-19T13:31:24.290Z,20.27
2019-05-19T13:34:31.702Z,20.26
2019-05-19T13:37:39.085Z,20.26
2019-05-19T13:40:46.859Z,20.21
2019-05-19T13:43:54.302Z,20.22
2019-05-19T13:47:01.605Z,20.23
2019-05-19T13:50:09.726Z,20.20
2019-05-19T13:53:35.381Z,20.22
2019-05-19T13:57:11.373Z,20.24
2019-05-19T14:00:16.751Z,20.24
2019-05-19T14:03:33.353Z,20.21
2019-05-19T14:06:50.290Z,20.21
2019-05-19T14:09:56.050Z,20.17
2019-05-19T14:13:03.583Z,20.20
2019-05-19T14:16:11.116Z,20.20
2019-05-19T14:19:18.462Z,20.21
2019-05-19T14:22:25.816Z,20.19
2019-05-19T14:25:33.186Z,20.22
2019-05-19T14:28:53.499Z,20.25
2019-05-19T14:32:00.818Z,20.17
2019-05-19T14:35:08.381Z,20.11
2019-05-19T14:38:15.664Z,20.13
2019-05-19T14:41:33.254Z,20.10
2019-05-19T14:44:32.166Z,20.10
2019-05-19T14:47:39.568Z,20.09
2019-05-19T14:50:59.191Z,20.20
2019-05-19T14:54:05.805Z,20.11
2019-05-19T14:57:11.489Z,20.06
2019-05-19T15:00:19.429Z,19.98
2019-05-19T15:03:42.287Z,20.01
2019-05-19T15:07:01.696Z,19.93
2019-05-19T15:10:11.131Z,19.86
2019-05-19T15:13:18.418Z,19.79
2019-05-19T15:16:25.926Z,19.78
2019-05-19T15:19:33.188Z,19.70
2019-05-19T15:22:40.823Z,19.65
2019-05-19T15:25:48.173Z,19.61
2019-05-19T15:29:07.461Z,19.60
2019-05-19T15:32:13.208Z,19.54
2019-05-19T15:35:37.205Z,19.57
2019-05-19T15:38:53.783Z,19.58
2019-05-19T15:42:14.958Z,19.58
2019-05-19T15:45:37.985Z,19.57
2019-05-19T15:48:48.857Z,19.54
2019-05-19T15:52:03.147Z,19.52
2019-05-19T15:55:06.217Z,19.53
2019-05-19T15:58:16.665Z,19.53
2019-05-19T16:01:23.066Z,19.54
2019-05-19T16:04:30.674Z,19.53
2019-05-19T16:07:50.336Z,19.53
2019-05-19T16:11:07.334Z,19.52
2019-05-19T16:14:26.970Z,19.48
2019-05-19T16:17:43.846Z,19.41
2019-05-19T16:21:00.524Z,19.42
2019-05-19T16:24:17.307Z,19.39
2019-05-19T16:27:34.046Z,19.37
2019-05-19T16:30:54.400Z,19.35
2019-05-19T16:34:01.860Z,19.25
2019-05-19T16:37:09.299Z,19.25
2019-05-19T16:40:16.885Z,19.23
2019-05-19T16:43:24.247Z,19.29
2019-05-19T16:46:49.427Z,19.30
2019-05-19T16:50:12.642Z,19.27
2019-05-19T16:53:19.992Z,19.18
2019-05-19T16:56:27.455Z,19.15
2019-05-19T16:59:35.051Z,19.11
2019-05-19T17:02:42.474Z,19.04
2019-05-19T17:05:50.005Z,19.00
2019-05-19T17:09:41.480Z,18.91
2019-05-19T17:12:57.284Z,18.83
2019-05-19T17:16:04.783Z,18.75
2019-05-19T17:19:12.131Z,18.67
2019-05-19T17:22:19.577Z,18.59
2019-05-19T17:25:26.827Z,18.58
2019-05-19T17:28:34.082Z,18.53
2019-05-19T17:31:41.793Z,18.46
2019-05-19T17:35:06.796Z,18.42
2019-05-19T17:38:14.154Z,18.31
2019-05-19T17:41:21.614Z,18.23
2019-05-19T17:44:28.986Z,18.16
2019-05-19T17:47:36.758Z,18.02
2019-05-19T17:51:12.064Z,17.93
2019-05-19T17:54:21.808Z,17.84
2019-05-19T17:57:42.295Z,17.84
2019-05-19T18:00:49.715Z,17.68
2019-05-19T18:03:56.505Z,17.62
2019-05-19T18:07:02.776Z,17.51
2019-05-19T18:10:10.257Z,17.45
2019-05-19T18:13:34.036Z,17.39
2019-05-19T18:16:48.002Z,17.30
2019-05-19T18:19:55.535Z,17.15
2019-05-19T18:23:02.416Z,17.03
2019-05-19T18:26:09.890Z,16.88
2019-05-19T18:29:30.570Z,16.71
2019-05-19T18:32:26.671Z,16.59
2019-05-19T18:35:34.288Z,16.51
2019-05-19T18:38:41.706Z,16.40
2019-05-19T18:41:47.931Z,16.36
2019-05-19T18:45:10.547Z,16.23
2019-05-19T18:48:33.245Z,16.17
2019-05-19T18:51:51.041Z,16.06
2019-05-19T18:54:59.483Z,15.94
2019-05-19T18:58:06.924Z,15.85
2019-05-19T19:01:25.174Z,15.89
2019-05-19T19:04:42.216Z,15.81
2019-05-19T19:08:09.080Z,15.71
2019-05-19T19:11:16.643Z,15.60
2019-05-19T19:14:33.541Z,15.67
2019-05-19T19:17:52.270Z,15.55
2019-05-19T19:21:12.040Z,15.43
2019-05-19T19:24:32.334Z,15.36
2019-05-19T19:27:39.742Z,15.25
2019-05-19T19:30:47.219Z,15.22
2019-05-19T19:33:54.630Z,15.19
2019-05-19T19:37:01.956Z,15.16
2019-05-19T19:40:09.571Z,15.06
2019-05-19T19:43:34.597Z,15.03
2019-05-19T19:46:53.605Z,14.98
2019-05-19T19:49:58.844Z,14.87
2019-05-19T19:53:06.289Z,14.87
2019-05-19T19:56:13.595Z,14.83
2019-05-19T19:59:21.334Z,14.80
2019-05-19T20:02:28.621Z,14.76
2019-05-19T20:05:36.040Z,14.69
2019-05-19T20:08:53.109Z,14.68
2019-05-19T20:12:00.657Z,14.60
2019-05-19T20:15:08.083Z,14.59
2019-05-19T20:18:15.425Z,14.50
2019-05-19T20:21:21.805Z,14.49
2019-05-19T20:24:28.496Z,14.46
2019-05-19T20:27:35.920Z,14.41
2019-05-19T20:30:52.911Z,14.42
2019-05-19T20:34:00.675Z,14.33
2019-05-19T20:37:08.091Z,14.30
2019-05-19T20:40:15.723Z,14.28
2019-05-19T20:43:22.984Z,14.22
2019-05-19T20:46:30.267Z,14.17
2019-05-19T20:49:49.483Z,14.19
2019-05-19T20:52:56.790Z,14.14
2019-05-19T20:56:13.560Z,14.11
2019-05-19T20:59:36.513Z,14.07
2019-05-19T21:02:53.120Z,14.01
2019-05-19T21:06:12.989Z,13.99
2019-05-19T21:09:19.189Z,13.91
2019-05-19T21:12:26.617Z,13.88
2019-05-19T21:15:34.189Z,13.83
2019-05-19T21:18:41.087Z,13.84
2019-05-19T21:21:48.400Z,13.79
2019-05-19T21:24:54.112Z,13.73
2019-05-19T21:27:59.961Z,13.74
2019-05-19T21:31:07.384Z,13.70
2019-05-19T21:34:24.173Z,13.65
2019-05-19T21:37:46.784Z,13.69
2019-05-19T21:41:03.695Z,13.64
2019-05-19T21:44:20.291Z,13.65
2019-05-19T21:47:39.496Z,13.66
2019-05-19T21:50:56.228Z,13.66
2019-05-19T21:54:12.975Z,13.63
2019-05-19T21:57:29.540Z,13.64
2019-05-19T22:00:46.608Z,13.62
2019-05-19T22:03:53.230Z,13.59
2019-05-19T22:07:25.622Z,13.58
2019-05-19T22:10:33.363Z,13.58
2019-05-19T22:13:40.666Z,13.54
2019-05-19T22:16:57.446Z,13.63
2019-05-19T22:20:14.105Z,13.60
2019-05-19T22:23:31.164Z,13.58
2019-05-19T22:26:38.693Z,13.53
2019-05-19T22:29:46.210Z,13.59
2019-05-19T22:32:53.754Z,13.55
2019-05-19T22:36:01.178Z,13.62
2019-05-19T22:39:26.508Z,13.56
2019-05-19T22:42:45.642Z,13.57
2019-05-19T22:45:53.250Z,13.51
2019-05-19T22:49:00.035Z,13.43
2019-05-19T22:52:07.368Z,13.43
2019-05-19T22:55:14.828Z,13.44
2019-05-19T22:58:22.347Z,13.44
2019-05-19T23:01:29.768Z,13.49
2019-05-19T23:04:37.068Z,13.47
2019-05-19T23:07:57.733Z,13.51
2019-05-19T23:11:05.261Z,13.39
2019-05-19T23:14:12.810Z,13.40
2019-05-19T23:17:29.304Z,13.36
2019-05-19T23:20:46.272Z,13.41
2019-05-19T23:24:03.085Z,13.38
2019-05-19T23:27:19.883Z,13.31
2019-05-19T23:30:36.532Z,13.29
2019-05-19T23:33:53.264Z,13.27
2019-05-19T23:37:09.983Z,13.24
2019-05-19T23:40:18.315Z,13.18
2019-05-19T23:43:25.722Z,13.15
2019-05-19T23:46:33.104Z,13.20
2019-05-19T23:49:55.892Z,13.22
2019-05-19T23:53:14.820Z,13.15
2019-05-19T23:56:22.111Z,13.17
2019-05-19T23:59:28.805Z,13.06
